Bunceton, MO (65237)

2:47 PM CDT on September 18, 2014 (GMT -0500)
Moniteau County | Change Station
CLOSE
Current Station
Personal Weather Station
Location: California, MO
Elevation: 725 ft
Nearby Weather Stations

Elev 725 ft 38.71 °N, 92.58 °W | Updated 4 seconds ago

Overcast
Overcast
68.2 °F
Feels Like 68.2 °F
N
0.2
Wind Variable Wind from SE
Gusts 2.3 mph

Today
High -- | Low -- °F
--% Chance of Precip.
Yesterday
High -- | Low -- °F
Precip. -- in
6:55 AM 7:14 PM
Waning Crescent, 25% visible
Pressure 30.02 in
Visibility 8.0 miles
Clouds Overcast 1100 ft
Dew Point 58 °F
Humidity 70%
Rainfall 0.01 in
Snow Depth Not available.
UV 2 out of 12
Pollen 5.90 out of 12
Air Quality Not available.
Flu Activity Not available.
METAR KDMO 181853Z AUTO 07009KT 8SM OVC011 19/16 A3003 RMK AO2 SLP164 T01940161

More Conditions Fewer Conditions

Pressure 30.02 in
Visibility 8.0 miles
Clouds Overcast 1100 ft
Dew Point 58 °F
Humidity 70%
Rainfall 0.01 in
Snow Depth Not available.
UV 2 out of 12
Pollen 5.90 out of 12
Air Quality Not available.
Flu Activity Not available.
METAR KDMO 181853Z AUTO 07009KT 8SM OVC011 19/16 A3003 RMK AO2 SLP164 T01940161

More Conditions Fewer Conditions

10-Day Weather Forecast

Almanac

Astronomy

Sep. 18, 2014 Rise Set
Actual Time 6:55 AM CDT 7:14 PM CDT
Civil Twilight 6:28 AM CDT 7:41 PM CDT
Nautical Twilight 5:57 AM CDT 8:12 PM CDT
Astronomical Twilight 5:25 AM CDT 8:44 PM CDT
Moon 1:50 AM CDT 4:03 PM CDT
Length of Visible Light 13h 12m
Length of Day
12h 19m
Tomorrow will be 2m 30s shorter.
Waning Crescent, 25% of the Moon is Illuminated
Today
Waning Crescent
Sep 24
New
Oct 1
First Quarter
Oct 8
Full
Oct 15
Last Quarter

Today's Extremes

State Highs State Lows

Community

WunderPhotos

Upload Photos

1,754,421 photos uploaded!

WunderBlogs® & News

By Dr. Jeff Masters
Director of Meteorology, Weather Underground
By Kari Strenfel
Meteorologist, Weather Underground
By Christopher C. Burt
Weather Historian, Weather Underground
September 18, 2014
September 18, 2014
September 18, 2014

Nearby

Snow Depth

Station Depth Elevation
No new snow has been reported.

Earthquake Activity

City Distance Mag. Time & Date
No recent earthquake activity has been reported nearby.
Minimum magnitude displayed is 2.5.

Coastal Water Temperatures

Place Temperature
No Stations Reporting

Nearby Weather Stations